createdAt,value
2019-05-25T00:00:28.544Z,62.84
2019-05-25T00:01:28.540Z,62.71
2019-05-25T00:02:28.531Z,62.71
2019-05-25T00:03:28.540Z,62.52
2019-05-25T00:04:28.542Z,62.94
2019-05-25T00:05:28.529Z,63.28
2019-05-25T00:06:28.545Z,63.10
2019-05-25T00:07:28.535Z,63.89
2019-05-25T00:08:28.548Z,63.45
2019-05-25T00:09:28.566Z,62.13
2019-05-25T00:10:28.548Z,62.82
2019-05-25T00:11:28.561Z,63.13
2019-05-25T00:12:28.566Z,62.89
2019-05-25T00:13:28.564Z,62.40
2019-05-25T00:14:28.568Z,61.72
2019-05-25T00:15:28.550Z,61.77
2019-05-25T00:16:28.550Z,62.33
2019-05-25T00:17:28.566Z,61.98
2019-05-25T00:18:28.554Z,61.97
2019-05-25T00:19:28.551Z,62.76
2019-05-25T00:20:28.563Z,62.64
2019-05-25T00:21:28.566Z,61.91
2019-05-25T00:22:28.568Z,61.62
2019-05-25T00:23:28.570Z,61.66
2019-05-25T00:24:28.577Z,61.67
2019-05-25T00:25:28.549Z,62.19
2019-05-25T00:26:28.554Z,62.44
2019-05-25T00:27:28.566Z,62.77
2019-05-25T00:28:28.558Z,62.89
2019-05-25T00:29:28.550Z,62.80
2019-05-25T00:30:28.578Z,62.50
2019-05-25T00:31:28.558Z,62.50
2019-05-25T00:32:28.556Z,61.98
2019-05-25T00:33:28.574Z,62.26
2019-05-25T00:34:28.568Z,62.77
2019-05-25T00:35:28.550Z,63.20
2019-05-25T00:36:28.575Z,63.33
2019-05-25T00:37:28.561Z,62.44
2019-05-25T00:38:28.567Z,61.50
2019-05-25T00:39:28.583Z,61.24
2019-05-25T00:40:28.574Z,61.54
2019-05-25T00:41:28.594Z,61.22
2019-05-25T00:42:28.582Z,61.79
2019-05-25T00:43:28.581Z,61.21
2019-05-25T00:44:28.584Z,61.17
2019-05-25T00:45:28.582Z,61.29
2019-05-25T00:46:28.589Z,61.13
2019-05-25T00:47:28.561Z,60.98
2019-05-25T00:48:28.586Z,61.49
2019-05-25T00:49:28.564Z,61.85
2019-05-25T00:50:28.575Z,62.16
2019-05-25T00:51:28.596Z,62.08
2019-05-25T00:52:28.605Z,62.16
2019-05-25T00:53:28.571Z,61.75
2019-05-25T00:54:28.587Z,62.09
2019-05-25T00:55:28.586Z,62.06
2019-05-25T00:56:28.553Z,62.11
2019-05-25T00:57:28.602Z,61.95
2019-05-25T00:58:28.597Z,61.70
2019-05-25T00:59:28.601Z,61.77
2019-05-25T01:00:28.589Z,61.83
2019-05-25T01:01:28.568Z,61.70
2019-05-25T01:02:28.547Z,61.85
2019-05-25T01:03:28.600Z,61.88
2019-05-25T01:04:28.583Z,62.12
2019-05-25T01:05:28.618Z,61.86
2019-05-25T01:06:28.603Z,61.85
2019-05-25T01:07:28.609Z,61.80
2019-05-25T01:08:28.565Z,61.88
2019-05-25T01:09:28.612Z,62.05
2019-05-25T01:10:28.622Z,62.48
2019-05-25T01:11:28.583Z,62.22
2019-05-25T01:12:28.605Z,62.30
2019-05-25T01:13:28.609Z,62.69
2019-05-25T01:14:28.565Z,62.95
2019-05-25T01:15:28.605Z,62.71
2019-05-25T01:16:28.658Z,63.13
2019-05-25T01:17:28.586Z,63.45
2019-05-25T01:18:28.604Z,63.54
2019-05-25T01:19:28.587Z,63.11
2019-05-25T01:20:28.584Z,63.15
2019-05-25T01:21:28.605Z,62.74
2019-05-25T01:22:28.624Z,62.37
2019-05-25T01:23:28.593Z,62.23
2019-05-25T01:24:43.247Z,62.09
2019-05-25T01:25:28.617Z,61.90
2019-05-25T01:26:28.590Z,62.33
2019-05-25T01:27:28.606Z,61.74
2019-05-25T01:28:28.635Z,61.85
2019-05-25T01:29:28.601Z,61.86
2019-05-25T01:30:28.619Z,62.20
2019-05-25T01:31:28.595Z,61.78
2019-05-25T01:32:28.577Z,62.06
2019-05-25T01:33:28.635Z,63.03
2019-05-25T01:34:28.623Z,62.86
2019-05-25T01:35:28.594Z,63.17
2019-05-25T01:36:28.625Z,62.79
2019-05-25T01:37:28.618Z,62.31
2019-05-25T01:38:28.632Z,61.92
2019-05-25T01:39:28.620Z,61.85
2019-05-25T01:40:28.620Z,61.95
2019-05-25T01:41:28.632Z,62.07
2019-05-25T01:42:28.646Z,62.63
2019-05-25T01:43:28.628Z,62.45
2019-05-25T01:44:28.606Z,62.20
2019-05-25T01:45:28.649Z,61.98
2019-05-25T01:46:28.659Z,62.44
2019-05-25T01:47:28.625Z,62.77
2019-05-25T01:48:28.635Z,62.46
2019-05-25T01:49:28.621Z,61.98
2019-05-25T01:50:28.583Z,62.05
2019-05-25T01:51:28.677Z,61.88
2019-05-25T01:52:28.638Z,62.53
2019-05-25T01:53:28.633Z,62.74
2019-05-25T01:54:28.649Z,63.41
2019-05-25T01:55:28.617Z,62.99
2019-05-25T01:56:28.605Z,62.94
2019-05-25T01:57:28.646Z,63.38
2019-05-25T01:58:28.632Z,63.03
2019-05-25T01:59:28.650Z,63.34
2019-05-25T02:00:28.649Z,63.31
2019-05-25T02:01:28.636Z,63.32
2019-05-25T02:02:28.623Z,63.28
2019-05-25T02:03:28.647Z,63.16
2019-05-25T02:04:28.653Z,63.90
2019-05-25T02:05:28.640Z,63.20
2019-05-25T02:06:28.654Z,62.91
2019-05-25T02:07:28.632Z,62.79
2019-05-25T02:08:28.641Z,62.22
2019-05-25T02:09:28.670Z,62.54
2019-05-25T02:10:28.663Z,63.10
2019-05-25T02:11:28.617Z,62.40
2019-05-25T02:12:28.656Z,62.74
2019-05-25T02:13:28.635Z,63.45
2019-05-25T02:14:28.640Z,64.98
2019-05-25T02:15:28.641Z,64.48
2019-05-25T02:16:28.642Z,63.99
2019-05-25T02:17:28.653Z,63.61
2019-05-25T02:18:28.662Z,63.31
2019-05-25T02:19:28.639Z,62.89
2019-05-25T02:20:28.649Z,63.05
2019-05-25T02:21:28.657Z,63.12
2019-05-25T02:22:28.646Z,63.05
2019-05-25T02:23:28.681Z,62.92
2019-05-25T02:24:28.660Z,62.72
2019-05-25T02:25:28.658Z,62.44
2019-05-25T02:26:28.630Z,62.33
2019-05-25T02:27:28.657Z,62.40
2019-05-25T02:28:28.657Z,62.79
2019-05-25T02:29:28.674Z,63.69
2019-05-25T02:30:28.696Z,63.63
2019-05-25T02:31:28.657Z,63.46
2019-05-25T02:32:28.638Z,63.34
2019-05-25T02:33:28.668Z,62.95
2019-05-25T02:34:28.667Z,63.35
2019-05-25T02:35:28.701Z,63.00
2019-05-25T02:36:28.665Z,62.90
2019-05-25T02:37:28.666Z,63.14
2019-05-25T02:38:28.645Z,63.55
2019-05-25T02:39:28.672Z,63.86
2019-05-25T02:40:28.857Z,63.77
2019-05-25T02:41:28.676Z,63.28
2019-05-25T02:42:28.669Z,63.15
2019-05-25T02:43:28.695Z,63.55
2019-05-25T02:44:28.660Z,63.25
2019-05-25T02:45:28.690Z,63.36
2019-05-25T02:46:28.681Z,62.85
2019-05-25T02:47:28.691Z,62.94
2019-05-25T02:48:28.676Z,62.74
2019-05-25T02:49:28.691Z,62.89
2019-05-25T02:50:28.646Z,63.54
2019-05-25T02:51:28.680Z,64.63
2019-05-25T02:52:28.691Z,64.28
2019-05-25T02:53:28.674Z,64.31
2019-05-25T02:54:28.678Z,64.07
2019-05-25T02:55:34.409Z,63.31
2019-05-25T02:56:28.660Z,63.22
2019-05-25T02:57:28.683Z,63.18
2019-05-25T02:58:28.680Z,62.95
2019-05-25T02:59:28.690Z,63.24
2019-05-25T03:00:28.692Z,63.34
2019-05-25T03:01:28.682Z,63.56
2019-05-25T03:02:28.677Z,63.28
2019-05-25T03:03:28.689Z,62.89
2019-05-25T03:04:28.695Z,63.14
2019-05-25T03:05:28.704Z,63.06
2019-05-25T03:06:28.679Z,63.02
2019-05-25T03:07:28.690Z,63.54
2019-05-25T03:08:28.685Z,63.90
2019-05-25T03:09:28.694Z,63.49
2019-05-25T03:10:28.691Z,62.87
2019-05-25T03:11:28.698Z,62.82
2019-05-25T03:12:28.695Z,62.26
2019-05-25T03:13:28.690Z,63.11
2019-05-25T03:14:28.681Z,63.00
2019-05-25T03:15:28.704Z,62.97
2019-05-25T03:16:28.708Z,62.75
2019-05-25T03:17:28.718Z,62.77
2019-05-25T03:18:28.714Z,63.36
2019-05-25T03:19:28.685Z,63.76
2019-05-25T03:20:28.685Z,63.53
2019-05-25T03:21:28.697Z,63.32
2019-05-25T03:22:28.705Z,63.90
2019-05-25T03:23:28.704Z,63.88
2019-05-25T03:24:28.710Z,63.56
2019-05-25T03:25:28.697Z,63.81
2019-05-25T03:26:28.666Z,65.22
2019-05-25T03:27:28.702Z,65.00
2019-05-25T03:28:28.696Z,64.41
2019-05-25T03:29:28.711Z,63.86
2019-05-25T03:30:28.717Z,63.37
2019-05-25T03:31:28.708Z,63.12
2019-05-25T03:32:28.705Z,63.54
2019-05-25T03:33:28.709Z,63.74
2019-05-25T03:34:28.726Z,63.91
2019-05-25T03:35:28.714Z,63.48
2019-05-25T03:36:28.714Z,63.23
2019-05-25T03:37:28.749Z,63.06
2019-05-25T03:38:28.703Z,63.16
2019-05-25T03:39:28.729Z,63.07
2019-05-25T03:40:28.731Z,63.86
2019-05-25T03:41:28.718Z,64.72
2019-05-25T03:42:28.717Z,65.11
2019-05-25T03:43:28.703Z,64.80
2019-05-25T03:44:28.711Z,64.11
2019-05-25T03:45:28.717Z,63.59
2019-05-25T03:46:28.715Z,63.45
2019-05-25T03:47:28.692Z,63.23
2019-05-25T03:48:28.731Z,63.01
2019-05-25T03:49:28.713Z,62.63
2019-05-25T03:50:28.707Z,62.93
2019-05-25T03:51:28.742Z,62.30
2019-05-25T03:52:28.740Z,62.20
2019-05-25T03:53:28.757Z,62.46
2019-05-25T03:54:28.729Z,62.14
2019-05-25T03:55:28.697Z,62.18
2019-05-25T03:56:28.688Z,62.39
2019-05-25T03:57:28.727Z,61.96
2019-05-25T03:58:28.729Z,62.89
2019-05-25T03:59:28.727Z,62.96
2019-05-25T04:00:28.733Z,62.92
2019-05-25T04:01:28.735Z,62.54
2019-05-25T04:02:28.725Z,62.30
2019-05-25T04:03:28.733Z,62.05
2019-05-25T04:04:28.722Z,61.99
2019-05-25T04:05:28.739Z,62.06
2019-05-25T04:06:28.735Z,61.90
2019-05-25T04:07:28.731Z,62.13
2019-05-25T04:08:28.709Z,62.06
2019-05-25T04:09:28.812Z,62.24
2019-05-25T04:10:28.739Z,62.37
2019-05-25T04:11:28.743Z,62.36
2019-05-25T04:12:28.757Z,61.85
2019-05-25T04:13:28.708Z,61.96
2019-05-25T04:14:28.742Z,61.85
2019-05-25T04:15:28.736Z,62.10
2019-05-25T04:16:28.742Z,62.45
2019-05-25T04:17:28.732Z,62.09
2019-05-25T04:18:28.751Z,62.46
2019-05-25T04:19:28.718Z,62.40
2019-05-25T04:20:28.746Z,62.42
2019-05-25T04:21:28.741Z,62.30
2019-05-25T04:22:28.752Z,62.32
2019-05-25T04:23:28.765Z,62.16
2019-05-25T04:24:28.744Z,61.79
2019-05-25T04:25:28.720Z,61.80
2019-05-25T04:26:28.738Z,61.71
2019-05-25T04:27:28.750Z,61.79
2019-05-25T04:28:28.752Z,61.92
2019-05-25T04:29:28.775Z,61.75
2019-05-25T04:30:28.789Z,61.81
2019-05-25T04:31:28.741Z,61.85
2019-05-25T04:32:28.761Z,61.77
2019-05-25T04:33:28.761Z,62.27
2019-05-25T04:34:28.760Z,62.58
2019-05-25T04:35:28.749Z,62.81
2019-05-25T04:36:28.766Z,62.81
2019-05-25T04:37:28.745Z,62.66
2019-05-25T04:38:28.766Z,62.29
2019-05-25T04:39:28.758Z,62.05
2019-05-25T04:40:28.758Z,61.58
2019-05-25T04:41:28.768Z,60.95
2019-05-25T04:42:28.763Z,60.99
2019-05-25T04:43:28.758Z,60.78
2019-05-25T04:44:28.729Z,61.41
2019-05-25T04:45:28.762Z,61.72
2019-05-25T04:46:28.782Z,61.06
2019-05-25T04:47:28.751Z,61.59
2019-05-25T04:48:28.772Z,60.85
2019-05-25T04:49:28.750Z,60.65
2019-05-25T04:50:28.773Z,60.51
2019-05-25T04:51:28.770Z,60.89
2019-05-25T04:52:28.784Z,60.96
2019-05-25T04:53:28.744Z,60.96
2019-05-25T04:54:28.786Z,60.08
2019-05-25T04:55:28.737Z,59.87
2019-05-25T04:56:39.041Z,60.00
2019-05-25T04:57:28.779Z,60.02
2019-05-25T04:58:28.777Z,59.46
2019-05-25T04:59:28.785Z,58.50
2019-05-25T05:00:28.767Z,58.21
2019-05-25T05:01:28.763Z,57.29
2019-05-25T05:02:28.773Z,57.01
2019-05-25T05:03:28.774Z,56.18
2019-05-25T05:04:28.766Z,54.42
2019-05-25T05:05:28.766Z,53.41
2019-05-25T05:06:28.779Z,52.03
2019-05-25T05:07:28.761Z,52.42
2019-05-25T05:08:28.768Z,50.98
2019-05-25T05:09:28.779Z,49.71
2019-05-25T05:10:28.787Z,50.35
2019-05-25T05:11:28.818Z,50.36
2019-05-25T05:12:28.782Z,49.99
2019-05-25T05:13:28.782Z,49.55
2019-05-25T05:14:28.762Z,47.90
2019-05-25T05:15:28.796Z,47.92
2019-05-25T05:16:28.791Z,47.77
2019-05-25T05:17:28.793Z,48.06
2019-05-25T05:18:28.822Z,46.26
2019-05-25T05:19:28.790Z,47.54
2019-05-25T05:20:28.756Z,46.16
2019-05-25T05:21:28.786Z,44.35
2019-05-25T05:22:28.806Z,44.12
2019-05-25T05:23:28.816Z,45.24
2019-05-25T05:24:28.785Z,44.42
2019-05-25T05:25:28.777Z,46.38
2019-05-25T05:26:28.791Z,45.61
2019-05-25T05:27:28.788Z,45.57
2019-05-25T05:28:28.797Z,45.57
2019-05-25T05:29:28.807Z,43.51
2019-05-25T05:30:28.807Z,44.31
2019-05-25T05:31:28.797Z,43.66
2019-05-25T05:32:28.785Z,43.31
2019-05-25T05:33:28.801Z,43.11
2019-05-25T05:34:28.795Z,43.31
2019-05-25T05:35:28.801Z,43.31
2019-05-25T05:36:28.797Z,42.35
2019-05-25T05:37:28.777Z,43.64
2019-05-25T05:38:28.809Z,41.81
2019-05-25T05:39:28.819Z,42.33
2019-05-25T05:40:28.816Z,41.70
2019-05-25T05:41:31.146Z,41.80
2019-05-25T05:42:28.805Z,41.13
2019-05-25T05:43:28.811Z,42.49
2019-05-25T05:44:28.918Z,42.52
2019-05-25T05:45:28.822Z,41.94
2019-05-25T05:46:28.809Z,41.44
2019-05-25T05:47:28.816Z,42.57
2019-05-25T05:48:28.816Z,41.98
2019-05-25T05:49:28.782Z,40.10
2019-05-25T05:50:28.829Z,39.42
2019-05-25T05:51:28.810Z,40.61
2019-05-25T05:52:28.804Z,41.99
2019-05-25T05:53:28.816Z,41.82
2019-05-25T05:54:28.811Z,40.96
2019-05-25T05:55:28.813Z,40.74
2019-05-25T05:56:28.823Z,40.64
2019-05-25T05:57:28.810Z,40.43
2019-05-25T05:58:28.815Z,39.63
2019-05-25T05:59:28.814Z,40.27
2019-05-25T06:00:28.908Z,38.89
2019-05-25T06:01:28.852Z,39.22
2019-05-25T06:02:28.918Z,39.73
2019-05-25T06:03:28.856Z,41.02
2019-05-25T06:04:29.060Z,40.35
2019-05-25T06:05:28.864Z,40.04
2019-05-25T06:06:28.931Z,39.23
2019-05-25T06:07:28.906Z,38.47
2019-05-25T06:08:28.887Z,39.87
2019-05-25T06:09:28.947Z,38.95
2019-05-25T06:10:28.933Z,37.78
2019-05-25T06:11:28.965Z,37.84
2019-05-25T06:12:28.990Z,37.76
2019-05-25T06:13:28.987Z,37.48
2019-05-25T06:14:28.990Z,37.43
2019-05-25T06:15:29.012Z,36.24
2019-05-25T06:16:29.020Z,37.50
2019-05-25T06:17:29.050Z,37.86
2019-05-25T06:18:29.059Z,36.57
2019-05-25T06:19:29.026Z,37.21
2019-05-25T06:20:29.047Z,36.20
2019-05-25T06:21:29.081Z,36.50
2019-05-25T06:22:29.079Z,35.71
2019-05-25T06:23:29.123Z,35.70
2019-05-25T06:24:29.111Z,34.82
2019-05-25T06:25:29.137Z,35.34
2019-05-25T06:26:29.126Z,33.94
2019-05-25T06:27:29.158Z,35.45
2019-05-25T06:28:29.157Z,36.40
2019-05-25T06:29:29.181Z,35.93
2019-05-25T06:30:29.190Z,35.21
2019-05-25T06:31:29.186Z,34.84
2019-05-25T06:32:29.177Z,34.56
2019-05-25T06:33:29.211Z,34.76
2019-05-25T06:34:29.267Z,34.70
2019-05-25T06:35:29.215Z,34.13
2019-05-25T06:36:29.260Z,34.22
2019-05-25T06:37:29.314Z,33.70
2019-05-25T06:38:29.276Z,33.22
2019-05-25T06:39:29.309Z,32.64
2019-05-25T06:40:29.283Z,32.61
2019-05-25T06:41:29.285Z,32.93
2019-05-25T06:42:29.333Z,31.02
2019-05-25T06:43:29.327Z,31.52
2019-05-25T06:44:29.358Z,31.75
2019-05-25T06:45:29.366Z,33.79
2019-05-25T06:46:29.363Z,34.59
2019-05-25T06:47:29.368Z,33.98
2019-05-25T06:48:29.385Z,33.01
2019-05-25T06:49:29.396Z,32.92
2019-05-25T06:50:29.427Z,33.20
2019-05-25T06:51:29.439Z,31.32
2019-05-25T06:52:29.425Z,31.11
2019-05-25T06:53:29.450Z,30.83
2019-05-25T06:54:29.470Z,30.14
2019-05-25T06:55:29.486Z,29.47
2019-05-25T06:56:29.495Z,30.45
2019-05-25T06:57:42.038Z,30.44
2019-05-25T06:58:29.488Z,30.48
2019-05-25T06:59:29.505Z,32.15
2019-05-25T07:00:29.506Z,30.33
2019-05-25T07:01:29.514Z,28.46
2019-05-25T07:02:29.484Z,28.60
2019-05-25T07:03:29.508Z,24.19
2019-05-25T07:04:29.489Z,24.72
2019-05-25T07:05:29.503Z,24.79
2019-05-25T07:06:29.536Z,24.80
2019-05-25T07:07:29.518Z,27.01
2019-05-25T07:08:29.494Z,26.42
2019-05-25T07:09:29.522Z,24.27
2019-05-25T07:10:29.498Z,24.13
2019-05-25T07:11:29.496Z,24.24
2019-05-25T07:12:29.529Z,23.81
2019-05-25T07:13:29.539Z,25.88
2019-05-25T07:14:29.491Z,27.93
2019-05-25T07:15:29.520Z,27.20
2019-05-25T07:16:29.510Z,26.40
2019-05-25T07:17:29.508Z,23.89
2019-05-25T07:18:29.538Z,27.41
2019-05-25T07:19:29.521Z,28.22
2019-05-25T07:20:29.517Z,24.00
2019-05-25T07:21:29.524Z,20.28
2019-05-25T07:22:29.527Z,22.94
2019-05-25T07:23:29.533Z,23.61
2019-05-25T07:24:29.557Z,26.44
2019-05-25T07:25:29.519Z,25.03
2019-05-25T07:26:29.521Z,24.00
2019-05-25T07:27:29.528Z,23.57
2019-05-25T07:28:29.522Z,23.35
2019-05-25T07:29:29.520Z,26.83
2019-05-25T07:30:29.522Z,24.55
2019-05-25T07:31:29.532Z,26.24
2019-05-25T07:32:29.521Z,25.33
2019-05-25T07:33:29.545Z,25.65
2019-05-25T07:34:29.540Z,26.35
2019-05-25T07:35:29.553Z,24.76
2019-05-25T07:36:29.542Z,24.99
2019-05-25T07:37:29.526Z,21.03
2019-05-25T07:38:29.526Z,21.15
2019-05-25T07:39:29.561Z,21.20
2019-05-25T07:40:29.555Z,23.40
2019-05-25T07:41:29.505Z,22.80
2019-05-25T07:42:29.555Z,23.32
2019-05-25T07:43:29.543Z,24.95
2019-05-25T07:44:29.544Z,24.20
2019-05-25T07:45:29.585Z,23.30
2019-05-25T07:46:29.552Z,23.80
2019-05-25T07:47:29.526Z,21.91
2019-05-25T07:48:29.543Z,24.09
2019-05-25T07:49:29.555Z,22.63
2019-05-25T07:50:29.541Z,24.09
2019-05-25T07:51:29.550Z,22.79
2019-05-25T07:52:29.567Z,23.99
2019-05-25T07:53:29.531Z,23.75
2019-05-25T07:54:29.558Z,22.09
2019-05-25T07:55:29.559Z,22.91
2019-05-25T07:56:29.543Z,23.90
2019-05-25T07:57:29.572Z,22.97
2019-05-25T07:58:29.548Z,24.25
2019-05-25T07:59:29.554Z,22.74
2019-05-25T08:00:29.565Z,22.17
2019-05-25T08:01:29.533Z,23.29
2019-05-25T08:02:29.562Z,23.20
2019-05-25T08:03:29.562Z,23.75
2019-05-25T08:04:29.537Z,22.53
2019-05-25T08:05:29.548Z,22.11
2019-05-25T08:06:29.610Z,21.64
2019-05-25T08:07:29.567Z,22.87
2019-05-25T08:08:29.564Z,21.34
2019-05-25T08:09:29.567Z,21.56
2019-05-25T08:10:29.549Z,22.28
2019-05-25T08:11:29.564Z,20.54
2019-05-25T08:12:29.611Z,23.64
2019-05-25T08:13:29.569Z,24.18
2019-05-25T08:14:29.572Z,23.85
2019-05-25T08:15:29.568Z,24.59
2019-05-25T08:16:29.545Z,23.66
2019-05-25T08:17:29.594Z,23.55
2019-05-25T08:18:29.574Z,23.33
2019-05-25T08:19:29.549Z,21.88
2019-05-25T08:20:29.578Z,22.58
2019-05-25T08:21:29.585Z,23.75
2019-05-25T08:22:29.590Z,24.33
2019-05-25T08:23:29.565Z,24.32
2019-05-25T08:24:29.583Z,21.76
2019-05-25T08:25:29.560Z,21.86
2019-05-25T08:26:29.595Z,22.58
2019-05-25T08:27:29.626Z,21.18
2019-05-25T08:28:32.775Z,24.11
2019-05-25T08:29:29.596Z,24.19
2019-05-25T08:30:29.606Z,22.96
2019-05-25T08:31:29.608Z,22.60
2019-05-25T08:32:29.587Z,23.00
2019-05-25T08:33:29.614Z,24.89
2019-05-25T08:34:29.598Z,23.30
2019-05-25T08:35:29.584Z,21.34
2019-05-25T08:36:29.903Z,21.86
2019-05-25T08:37:29.602Z,21.02
2019-05-25T08:38:29.633Z,20.90
2019-05-25T08:39:29.614Z,22.96
2019-05-25T08:40:29.583Z,20.88
2019-05-25T08:41:29.578Z,21.60
2019-05-25T08:42:29.605Z,20.41
2019-05-25T08:43:29.611Z,22.57
2019-05-25T08:44:29.578Z,21.75
2019-05-25T08:45:29.602Z,22.76
2019-05-25T08:46:29.603Z,24.11
2019-05-25T08:47:29.603Z,24.86
2019-05-25T08:48:29.622Z,24.07
2019-05-25T08:49:29.607Z,23.90
2019-05-25T08:50:38.223Z,26.25
2019-05-25T08:51:29.615Z,26.63
2019-05-25T08:52:29.596Z,26.05
2019-05-25T08:53:40.716Z,26.02
2019-05-25T08:54:29.636Z,26.24
2019-05-25T08:55:29.619Z,26.05
2019-05-25T08:56:29.610Z,25.97
2019-05-25T08:57:29.625Z,25.36
2019-05-25T08:58:29.605Z,25.01
2019-05-25T08:59:29.616Z,25.04
2019-05-25T09:00:29.637Z,25.28
2019-05-25T09:01:29.631Z,25.34
2019-05-25T09:02:29.619Z,25.62
2019-05-25T09:03:29.640Z,26.37
2019-05-25T09:04:29.607Z,23.57
2019-05-25T09:05:29.624Z,23.70
2019-05-25T09:06:29.663Z,23.69
2019-05-25T09:07:29.642Z,26.10
2019-05-25T09:08:29.629Z,24.03
2019-05-25T09:09:29.641Z,22.05
2019-05-25T09:10:29.644Z,23.38
2019-05-25T09:11:29.655Z,22.41
2019-05-25T09:12:29.644Z,22.10
2019-05-25T09:13:29.627Z,21.18
2019-05-25T09:14:29.628Z,22.12
2019-05-25T09:15:29.645Z,20.85
2019-05-25T09:16:29.642Z,21.50
2019-05-25T09:17:29.621Z,21.93
2019-05-25T09:18:29.638Z,20.52
2019-05-25T09:19:29.629Z,21.90
2019-05-25T09:20:29.616Z,21.87
2019-05-25T09:21:29.675Z,22.00
2019-05-25T09:22:29.670Z,20.96
2019-05-25T09:23:29.627Z,19.45
2019-05-25T09:24:29.650Z,21.81
2019-05-25T09:25:29.655Z,18.79
2019-05-25T09:26:29.637Z,19.81
2019-05-25T09:27:29.669Z,19.30
2019-05-25T09:28:29.635Z,19.80
2019-05-25T09:29:29.674Z,19.38
2019-05-25T09:30:29.647Z,21.10
2019-05-25T09:31:29.638Z,19.76
2019-05-25T09:32:29.756Z,19.78
2019-05-25T09:33:29.656Z,18.69
2019-05-25T09:34:29.650Z,20.53
2019-05-25T09:35:29.636Z,19.45
2019-05-25T09:36:29.675Z,19.52
2019-05-25T09:37:29.674Z,20.30
2019-05-25T09:38:29.639Z,19.01
2019-05-25T09:39:29.687Z,18.33
2019-05-25T09:40:29.644Z,21.34
2019-05-25T09:41:29.662Z,21.90
2019-05-25T09:42:29.695Z,21.81
2019-05-25T09:43:29.653Z,20.34
2019-05-25T09:44:29.659Z,20.21
2019-05-25T09:45:29.680Z,19.54
2019-05-25T09:46:29.662Z,18.01
2019-05-25T09:47:29.669Z,18.90
2019-05-25T09:48:29.679Z,20.38
2019-05-25T09:49:29.672Z,21.84
2019-05-25T09:50:29.677Z,22.78
2019-05-25T09:51:29.682Z,22.65
2019-05-25T09:52:29.730Z,21.80
2019-05-25T09:53:29.664Z,22.71
2019-05-25T09:54:29.676Z,21.52
2019-05-25T09:55:29.673Z,20.00
2019-05-25T09:56:29.690Z,20.85
2019-05-25T09:57:29.721Z,21.82
2019-05-25T09:58:29.670Z,21.39
2019-05-25T09:59:29.662Z,19.35
2019-05-25T10:00:29.710Z,20.12
2019-05-25T10:01:29.673Z,19.90
2019-05-25T10:02:29.707Z,19.62
2019-05-25T10:03:29.710Z,21.39
2019-05-25T10:04:29.682Z,23.29
2019-05-25T10:05:29.666Z,20.43
2019-05-25T10:06:29.695Z,20.92
2019-05-25T10:07:29.704Z,21.76
2019-05-25T10:08:29.693Z,22.63
2019-05-25T10:09:29.682Z,24.32
2019-05-25T10:10:29.679Z,23.55
2019-05-25T10:11:29.686Z,22.45
2019-05-25T10:12:29.718Z,22.98
2019-05-25T10:13:29.712Z,25.55
2019-05-25T10:14:29.725Z,23.53
2019-05-25T10:15:29.752Z,22.59
2019-05-25T10:16:29.696Z,21.28
2019-05-25T10:17:29.759Z,20.19
2019-05-25T10:18:29.724Z,24.05
2019-05-25T10:19:29.827Z,21.51
2019-05-25T10:20:29.718Z,20.49
2019-05-25T10:21:29.835Z,21.12
2019-05-25T10:22:29.716Z,21.88
2019-05-25T10:23:29.691Z,24.67
2019-05-25T10:24:29.713Z,23.94
2019-05-25T10:25:29.762Z,25.38
2019-05-25T10:26:29.722Z,23.86
2019-05-25T10:27:29.775Z,24.17
2019-05-25T10:28:29.714Z,23.13
2019-05-25T10:29:36.999Z,22.24
2019-05-25T10:30:29.726Z,22.59
2019-05-25T10:31:29.726Z,22.16
2019-05-25T10:32:29.738Z,21.21
2019-05-25T10:33:29.722Z,22.66
2019-05-25T10:34:29.711Z,22.42
2019-05-25T10:35:29.702Z,23.51
2019-05-25T10:36:29.736Z,23.64
2019-05-25T10:37:29.736Z,24.19
2019-05-25T10:38:29.743Z,25.73
2019-05-25T10:39:29.740Z,24.88
2019-05-25T10:40:29.723Z,23.79
2019-05-25T10:41:29.703Z,23.39
2019-05-25T10:42:29.736Z,22.70
2019-05-25T10:43:29.750Z,24.52
2019-05-25T10:44:29.759Z,25.82
2019-05-25T10:45:29.759Z,25.73
2019-05-25T10:46:29.795Z,25.34
2019-05-25T10:47:29.764Z,24.67
2019-05-25T10:48:29.734Z,24.90
2019-05-25T10:49:29.797Z,25.57
2019-05-25T10:50:29.762Z,24.72
2019-05-25T10:51:29.846Z,25.41
2019-05-25T10:52:29.732Z,24.93
2019-05-25T10:53:29.762Z,24.12
2019-05-25T10:54:29.758Z,24.55
2019-05-25T10:55:29.775Z,24.87
2019-05-25T10:56:29.765Z,24.58
2019-05-25T10:57:29.795Z,23.72
2019-05-25T10:58:29.724Z,23.12
2019-05-25T10:59:29.721Z,23.65
2019-05-25T11:00:29.758Z,25.25
2019-05-25T11:01:29.760Z,24.37
2019-05-25T11:02:29.747Z,25.65
2019-05-25T11:03:29.763Z,24.89
2019-05-25T11:04:29.739Z,23.75
2019-05-25T11:05:29.754Z,23.71
2019-05-25T11:06:29.774Z,24.76
2019-05-25T11:07:29.864Z,24.05
2019-05-25T11:08:29.767Z,23.24
2019-05-25T11:09:29.760Z,23.76
2019-05-25T11:10:29.749Z,24.67
2019-05-25T11:11:29.763Z,22.30
2019-05-25T11:12:29.771Z,23.42
2019-05-25T11:13:29.770Z,22.38
2019-05-25T11:14:29.767Z,23.21
2019-05-25T11:15:29.778Z,22.51
2019-05-25T11:16:29.757Z,20.97
2019-05-25T11:17:29.766Z,19.70
2019-05-25T11:18:29.778Z,20.66
2019-05-25T11:19:29.785Z,22.08
2019-05-25T11:20:29.803Z,24.29
2019-05-25T11:21:29.769Z,24.41
2019-05-25T11:22:29.767Z,25.47
2019-05-25T11:23:29.791Z,24.15
2019-05-25T11:24:29.786Z,23.83
2019-05-25T11:25:29.797Z,23.09
2019-05-25T11:26:29.790Z,23.61
2019-05-25T11:27:29.796Z,24.24
2019-05-25T11:28:29.768Z,25.18
2019-05-25T11:29:29.784Z,23.44
2019-05-25T11:30:29.796Z,25.33
2019-05-25T11:31:29.858Z,24.33
2019-05-25T11:32:29.780Z,23.11
2019-05-25T11:33:29.844Z,23.78
2019-05-25T11:34:29.938Z,23.63
2019-05-25T11:35:29.798Z,20.46
2019-05-25T11:36:29.801Z,21.21
2019-05-25T11:37:29.805Z,23.31
2019-05-25T11:38:29.804Z,22.26
2019-05-25T11:39:29.802Z,22.76
2019-05-25T11:40:29.820Z,21.74
2019-05-25T11:41:29.776Z,21.99
2019-05-25T11:42:29.799Z,21.52
2019-05-25T11:43:29.802Z,22.09
2019-05-25T11:44:29.824Z,22.21
2019-05-25T11:45:29.806Z,23.97
2019-05-25T11:46:29.832Z,24.10
2019-05-25T11:47:29.798Z,25.09
2019-05-25T11:48:29.813Z,22.81
2019-05-25T11:49:29.824Z,22.28
2019-05-25T11:50:29.828Z,23.48
2019-05-25T11:51:29.828Z,21.50
2019-05-25T11:52:29.810Z,24.36
2019-05-25T11:53:29.810Z,23.28
2019-05-25T11:54:29.814Z,22.55
2019-05-25T11:55:29.828Z,20.76
2019-05-25T11:56:29.832Z,22.13
2019-05-25T11:57:29.837Z,24.75
2019-05-25T11:58:29.810Z,24.49
2019-05-25T11:59:29.795Z,24.39
2019-05-25T12:00:29.824Z,25.03
2019-05-25T12:01:29.809Z,25.37
2019-05-25T12:02:29.836Z,25.91
2019-05-25T12:03:29.829Z,25.52
2019-05-25T12:04:29.812Z,25.27
2019-05-25T12:05:29.821Z,24.37
2019-05-25T12:06:29.829Z,26.11
2019-05-25T12:07:29.833Z,24.31
2019-05-25T12:08:29.845Z,23.89
2019-05-25T12:09:29.849Z,24.01
2019-05-25T12:10:29.810Z,24.33
2019-05-25T12:11:29.846Z,24.91
2019-05-25T12:12:29.856Z,25.65
2019-05-25T12:13:32.086Z,24.97
2019-05-25T12:14:29.853Z,24.41
2019-05-25T12:15:29.830Z,24.39
2019-05-25T12:16:29.845Z,23.84
2019-05-25T12:17:29.824Z,22.69
2019-05-25T12:18:29.845Z,22.60
2019-05-25T12:19:29.863Z,23.57
2019-05-25T12:20:29.853Z,25.57
2019-05-25T12:21:29.864Z,24.17
2019-05-25T12:22:29.832Z,24.51
2019-05-25T12:23:29.835Z,25.29
2019-05-25T12:24:29.850Z,24.39
2019-05-25T12:25:29.858Z,23.91
2019-05-25T12:26:29.861Z,23.50
2019-05-25T12:27:29.862Z,23.07
2019-05-25T12:28:29.829Z,22.53
2019-05-25T12:29:29.839Z,24.01
2019-05-25T12:30:40.210Z,23.25
2019-05-25T12:31:29.870Z,24.39
2019-05-25T12:32:29.870Z,24.51
2019-05-25T12:33:29.865Z,27.32
2019-05-25T12:34:29.891Z,26.31
2019-05-25T12:35:29.851Z,26.02
2019-05-25T12:36:29.880Z,24.61
2019-05-25T12:37:29.871Z,24.30
2019-05-25T12:38:29.878Z,24.36
2019-05-25T12:39:29.873Z,24.43
2019-05-25T12:40:29.850Z,25.02
2019-05-25T12:41:29.856Z,25.75
2019-05-25T12:42:29.880Z,23.64
2019-05-25T12:43:29.859Z,22.60
2019-05-25T12:44:29.891Z,23.64
2019-05-25T12:45:29.873Z,25.36
2019-05-25T12:46:29.923Z,23.26
2019-05-25T12:47:29.877Z,24.70
2019-05-25T12:48:29.871Z,24.65
2019-05-25T12:49:29.900Z,25.57
2019-05-25T12:50:29.893Z,27.00
2019-05-25T12:51:29.901Z,26.44
2019-05-25T12:52:29.879Z,24.03